Overview Statistics Trail Chart Weather Telemetry Raw packets
 

This is the latest recevied weather packets stored in our database for station/object KD7CIH. If no packets are shown the sender has not sent any weather packets the latest 10 day(s).

<< 68 69 70 71 72 73 74 >>
Time Temp. Humidity Pressure Rain* Wind** Luminosity Snow
1788212748 25.56° C 29% 1015.1 hPa 0 mm - - -
1788212450 25.56° C 22% 1014.9 hPa 0 mm - - -
1788212148 25.56° C 21% 1014.9 hPa 0 mm - - -
1788211848 26.11° C 21% 1014.9 hPa 0 mm - - -
1788211547 26.11° C 20% 1014.9 hPa 0 mm - - -
1788211242 25.56° C 20% 1015.2 hPa 0 mm - - -
1788211072 25.56° C 22% 1015.3 hPa 0 mm - - -
1788210642 25.56° C 20% 1015.3 hPa 0 mm - - -
1788210342 25.56° C 21% 1015.4 hPa 0 mm - - -
1788210043 25.56° C 20% 1015.5 hPa 0 mm - - -
1788209872 25.56° C 21% 1015.7 hPa 0 mm - - -
1788209443 25.56° C 20% 1015.8 hPa 0 mm - - -
1788209144 25.56° C 20% 1015.9 hPa 0 mm - - -
1788208838 25.56° C 20% 1016 hPa 0 mm - - -
1788208538 25° C 17% 1016 hPa 0 mm - - -
1788208238 25.56° C 19% 1016.3 hPa 0 mm - - -
1788207939 25.56° C 21% 1016.4 hPa 0 mm - - -
1788207638 25° C 23% 1016.4 hPa 0 mm - - -
1788207465 25° C 23% 1016.6 hPa 0 mm - - -
1788207039 25° C 25% 1016.6 hPa 0 mm - - -
1788206865 24.44° C 24% 1016.6 hPa 0 mm - - -
1788206439 24.44° C 23% 1016.6 hPa 0 mm - - -
1788206136 24.44° C 24% 1016.8 hPa 0 mm - - -
1788205838 24.44° C 24% 1016.8 hPa 0 mm - - -
1788205537 23.89° C 26% 1016.8 hPa 0 mm - - -

* Rain latest hour (hover to see other rain measurements)
** Current wind speed in m/s (hover to see current wind gust speed)